Time;durP1;ratioP1;P1;durP2;ratioP2;P2;SDS_P1;SDS_P2;PMS_P1;PMS_P2;Temp;Humidity;BMP_temperature;BMP_pressure;BME280_temperature;BME280_humidity;BME280_pressure;Samples;Min_cycle;Max_cycle;Signal;HPM_P1;HPM_P2
2022/07/16 00:03:00;;;;;;;5.80;1.80;;;;;;;21.18;41.10;101635.69;5035514;28;20050;-64
2022/07/16 00:05:28;;;;;;;10.70;2.50;;;;;;;20.99;41.58;101634.81;5022747;28;20622;-64
2022/07/16 00:07:55;;;;;;;9.90;1.70;;;;;;;20.69;42.53;101631.59;5023570;28;20061;-64
2022/07/16 00:10:22;;;;;;;11.27;2.45;;;;;;;20.71;42.39;101634.03;5060706;28;20053;-64
2022/07/16 00:12:50;;;;;;;8.90;2.60;;;;;;;20.88;42.10;101633.66;5029502;28;20049;-64
2022/07/16 00:15:17;;;;;;;5.75;1.80;;;;;;;20.58;42.81;101630.47;5029361;28;20046;-64
2022/07/16 00:17:46;;;;;;;11.27;1.98;;;;;;;20.76;42.33;101642.16;5030118;28;20048;-64
2022/07/16 00:20:13;;;;;;;11.23;2.15;;;;;;;20.79;42.30;101638.63;5030169;28;20041;-65
2022/07/16 00:22:40;;;;;;;12.70;1.92;;;;;;;20.85;42.40;101631.59;5020845;28;20528;-64
2022/07/16 00:25:09;;;;;;;7.63;2.00;;;;;;;20.87;42.33;101630.06;5037786;28;20057;-64
2022/07/16 00:27:36;;;;;;;6.43;1.95;;;;;;;20.74;42.72;101630.50;5034090;28;20428;-64
2022/07/16 00:30:04;;;;;;;8.50;2.10;;;;;;;20.93;42.27;101631.41;5024752;28;20057;-64
2022/07/16 00:32:31;;;;;;;7.85;1.85;;;;;;;20.65;42.77;101630.66;5033727;28;20049;-64
2022/07/16 00:34:58;;;;;;;9.07;2.00;;;;;;;20.71;42.95;101623.63;5026620;28;20054;-64
2022/07/16 00:37:26;;;;;;;6.03;1.75;;;;;;;20.80;42.75;101621.47;5031590;28;20060;-64
2022/07/16 00:39:53;;;;;;;5.40;1.85;;;;;;;20.93;42.27;101633.41;5067424;28;20064;-64
2022/07/16 00:42:20;;;;;;;9.95;2.25;;;;;;;20.88;42.18;101640.09;5034616;28;20057;-64
2022/07/16 00:44:48;;;;;;;6.88;2.17;;;;;;;20.68;43.23;101640.31;5033761;28;20068;-64
2022/07/16 00:47:15;;;;;;;8.82;2.33;;;;;;;20.84;42.90;101632.75;5018457;28;20057;-64
2022/07/16 00:49:42;;;;;;;10.02;3.00;;;;;;;20.83;42.69;101633.94;5026561;28;20064;-64
2022/07/16 00:52:10;;;;;;;15.20;3.00;;;;;;;20.65;42.98;101636.28;5031162;28;20468;-65
2022/07/16 00:54:38;;;;;;;9.15;3.65;;;;;;;20.48;43.36;101632.97;5027010;28;20058;-64
2022/07/16 00:57:06;;;;;;;11.10;3.58;;;;;;;20.58;43.38;101624.88;5020867;28;20052;-64
2022/07/16 00:59:33;;;;;;;12.52;3.63;;;;;;;20.83;42.87;101631.16;5032292;28;20689;-64
2022/07/16 01:02:00;;;;;;;9.75;3.30;;;;;;;20.90;42.76;101622.94;5019513;28;20050;-64
2022/07/16 01:04:28;;;;;;;9.05;2.95;;;;;;;20.67;42.92;101622.72;5014190;28;20046;-64
2022/07/16 01:06:56;;;;;;;8.68;2.83;;;;;;;20.73;42.93;101626.09;5031312;28;20060;-64
2022/07/16 01:09:25;;;;;;;7.50;2.40;;;;;;;20.71;43.21;101629.22;5017282;28;20058;-64
2022/07/16 01:11:53;;;;;;;7.97;2.65;;;;;;;20.33;43.93;101630.97;5031195;28;20065;-64
2022/07/16 01:14:20;;;;;;;7.85;2.45;;;;;;;20.38;43.79;101633.50;5032597;28;20049;-64
2022/07/16 01:16:48;;;;;;;11.57;2.13;;;;;;;20.55;43.56;101631.19;5032792;28;20061;-64
2022/07/16 01:19:15;;;;;;;6.88;2.42;;;;;;;20.61;43.53;101631.72;5035006;28;20552;-64
2022/07/16 01:21:43;;;;;;;17.02;2.22;;;;;;;20.54;43.89;101634.38;5021610;28;20045;-64
2022/07/16 01:24:10;;;;;;;8.52;2.90;;;;;;;20.58;43.65;101630.47;5032401;28;20053;-64
2022/07/16 01:26:37;;;;;;;10.18;2.30;;;;;;;20.60;43.73;101624.53;5024243;28;20045;-64
2022/07/16 01:29:05;;;;;;;12.05;2.13;;;;;;;20.72;43.33;101630.03;5032145;28;20053;-64
2022/07/16 01:31:32;;;;;;;5.80;1.90;;;;;;;20.55;43.57;101635.97;5037357;28;20054;-63
2022/07/16 01:36:57;;;;;;;9.35;2.00;;;;;;;20.80;42.93;101626.28;5032809;28;20060;-70
2022/07/16 01:39:25;;;;;;;10.77;2.33;;;;;;;20.50;43.78;101630.66;5021288;28;20052;-70
2022/07/16 01:41:55;;;;;;;10.15;2.67;;;;;;;20.57;43.91;101628.03;5021352;28;20517;-70
2022/07/16 01:44:24;;;;;;;11.80;2.70;;;;;;;20.52;43.68;101625.50;5014522;28;20054;-70
2022/07/16 01:46:53;;;;;;;6.60;1.93;;;;;;;20.01;44.90;101632.81;5030726;28;20049;-70
2022/07/16 01:49:21;;;;;;;8.00;2.20;;;;;;;20.15;44.89;101633.22;5024579;28;20305;-70
2022/07/16 01:51:49;;;;;;;11.43;2.05;;;;;;;20.30;44.38;101632.50;5017492;28;20072;-70
2022/07/16 01:54:17;;;;;;;7.47;1.92;;;;;;;20.43;44.34;101628.47;5033054;28;20041;-70
2022/07/16 01:56:44;;;;;;;7.95;2.20;;;;;;;20.64;43.90;101628.25;5033747;28;20397;-71
2022/07/16 01:59:11;;;;;;;9.85;2.25;;;;;;;20.54;44.03;101631.56;5026904;28;20046;-64
2022/07/16 02:01:38;;;;;;;7.38;1.90;;;;;;;20.50;44.00;101630.66;5019890;28;20049;-64
2022/07/16 02:04:06;;;;;;;5.45;1.98;;;;;;;20.39;44.37;101630.34;5025273;28;20084;-64
2022/07/16 02:06:34;;;;;;;9.02;1.98;;;;;;;20.15;44.35;101634.03;5028171;28;20053;-64
2022/07/16 02:09:01;;;;;;;9.63;2.15;;;;;;;20.15;44.78;101630.44;5025065;28;20126;-70
2022/07/16 02:11:28;;;;;;;7.22;1.98;;;;;;;20.02;45.32;101634.44;5029847;28;20049;-70
2022/07/16 02:13:56;;;;;;;8.30;2.33;;;;;;;20.26;44.58;101627.97;5033064;28;20064;-71
2022/07/16 02:16:23;;;;;;;7.15;2.17;;;;;;;20.36;44.51;101631.06;5032704;28;20582;-71
2022/07/16 02:18:50;;;;;;;7.38;2.47;;;;;;;20.27;44.90;101630.41;5034158;28;20057;-64
2022/07/16 02:21:18;;;;;;;8.25;2.58;;;;;;;20.10;44.93;101627.91;5020668;28;20060;-64
2022/07/16 02:23:45;;;;;;;8.05;2.47;;;;;;;20.41;44.11;101628.00;5031914;28;20053;-64
2022/07/16 02:26:13;;;;;;;8.02;2.33;;;;;;;20.31;44.67;101630.50;5028918;28;20809;-64
2022/07/16 02:28:40;;;;;;;6.28;2.22;;;;;;;20.10;44.83;101628.69;5040777;28;20512;-64
2022/07/16 02:31:07;;;;;;;11.32;2.50;;;;;;;20.21;44.87;101631.03;5023746;28;20429;-64
2022/07/16 02:33:35;;;;;;;7.85;2.30;;;;;;;20.15;45.01;101630.44;5029631;28;20060;-71
2022/07/16 02:36:02;;;;;;;10.57;2.60;;;;;;;19.96;45.21;101627.47;5032025;28;20366;-64
2022/07/16 02:38:30;;;;;;;8.20;2.97;;;;;;;19.95;45.41;101637.00;5033924;28;20057;-64
2022/07/16 02:40:57;;;;;;;13.80;3.25;;;;;;;19.93;45.39;101636.56;5028835;28;20071;-64
2022/07/16 02:43:24;;;;;;;9.52;2.58;;;;;;;19.69;45.83;101645.00;5030135;28;20057;-69
2022/07/16 02:45:51;;;;;;;7.22;2.53;;;;;;;19.95;45.52;101645.41;5024741;28;20500;-69
2022/07/16 02:48:19;;;;;;;9.55;2.60;;;;;;;20.19;45.46;101641.75;5033537;28;20045;-71
2022/07/16 02:50:46;;;;;;;8.35;2.67;;;;;;;19.78;46.00;101638.13;5022782;28;20050;-64
2022/07/16 02:53:14;;;;;;;11.10;2.53;;;;;;;19.57;46.71;101645.84;5031091;28;20054;-64
2022/07/16 02:55:41;;;;;;;14.30;3.00;;;;;;;19.93;45.83;101637.38;5026847;28;20061;-64
2022/07/16 02:58:08;;;;;;;9.02;3.08;;;;;;;20.06;45.48;101641.78;5029134;28;20596;-70
2022/07/16 03:00:36;;;;;;;15.38;2.30;;;;;;;19.76;46.17;101632.06;5029500;28;20509;-70
2022/07/16 03:03:03;;;;;;;11.27;2.55;;;;;;;19.62;46.54;101634.41;5021722;28;20516;-64
2022/07/16 03:05:30;;;;;;;11.38;2.47;;;;;;;19.69;46.53;101631.84;5019738;28;20045;-64
2022/07/16 03:07:58;;;;;;;9.25;2.20;;;;;;;19.89;45.63;101633.66;5033014;28;20065;-63
2022/07/16 03:10:25;;;;;;;8.77;2.30;;;;;;;20.08;45.42;101639.41;5019910;28;20497;-63
2022/07/16 03:12:54;;;;;;;6.68;2.20;;;;;;;20.04;45.81;101632.09;5028301;28;20053;-63
2022/07/16 03:15:21;;;;;;;7.53;2.35;;;;;;;19.83;46.22;101634.25;5031719;28;20433;-64
2022/07/16 03:17:49;;;;;;;8.32;2.15;;;;;;;19.89;45.76;101630.06;5030785;28;20524;-64
2022/07/16 03:20:16;;;;;;;8.70;2.13;;;;;;;19.88;45.02;101645.19;5037342;28;20489;-64
2022/07/16 03:22:44;;;;;;;9.75;2.40;;;;;;;19.86;45.83;101645.53;5036979;28;20072;-64
2022/07/16 03:25:14;;;;;;;9.90;2.45;;;;;;;19.83;45.90;101643.47;5051016;28;20082;-70
2022/07/16 03:27:41;;;;;;;10.95;2.17;;;;;;;19.81;45.81;101642.19;5025558;28;20608;-70
2022/07/16 03:30:09;;;;;;;10.43;2.40;;;;;;;19.82;46.13;101635.44;5034761;28;20053;-70
2022/07/16 03:32:37;;;;;;;6.75;2.08;;;;;;;19.56;46.92;101635.03;5018034;28;20050;-71
2022/07/16 03:35:06;;;;;;;13.38;2.60;;;;;;;19.70;46.54;101627.88;5029940;28;20050;-64
2022/07/16 03:37:33;;;;;;;10.32;2.30;;;;;;;19.66;46.34;101643.75;5031489;28;20064;-71
2022/07/16 03:40:01;;;;;;;10.15;1.90;;;;;;;19.62;46.41;101647.56;5021827;28;20061;-70
2022/07/16 03:42:28;;;;;;;12.43;2.25;;;;;;;19.89;45.71;101647.63;5036987;28;20523;-64
2022/07/16 03:44:56;;;;;;;9.90;2.30;;;;;;;19.53;46.44;101644.09;5022452;28;20049;-71
2022/07/16 03:47:23;;;;;;;8.27;1.90;;;;;;;19.68;46.32;101648.97;5035068;28;20153;-71
2022/07/16 03:49:51;;;;;;;11.00;2.10;;;;;;;19.80;45.83;101643.34;5022848;28;20049;-70
2022/07/16 03:52:18;;;;;;;6.78;2.10;;;;;;;19.76;46.02;101646.03;5035009;28;20057;-64
2022/07/16 03:54:45;;;;;;;13.13;2.60;;;;;;;19.94;45.52;101653.00;5022057;28;20064;-65
2022/07/16 03:57:13;;;;;;;6.95;1.95;;;;;;;19.68;46.30;101646.19;5036793;28;20058;-65
2022/07/16 03:59:40;;;;;;;9.45;2.03;;;;;;;19.78;45.69;101646.50;5062644;28;20056;-65
2022/07/16 04:02:07;;;;;;;6.40;2.10;;;;;;;19.99;45.50;101644.38;5036551;28;20511;-71
2022/07/16 04:04:35;;;;;;;5.82;2.42;;;;;;;19.76;46.05;101643.25;5024575;28;20413;-65
2022/07/16 04:07:02;;;;;;;10.57;2.55;;;;;;;19.56;46.62;101654.59;5025341;28;20452;-64
2022/07/16 04:09:30;;;;;;;8.60;2.60;;;;;;;19.48;46.86;101653.53;5034501;28;20050;-64
2022/07/16 04:11:57;;;;;;;7.15;2.33;;;;;;;19.38;47.30;101653.19;5027292;28;20049;-65
2022/07/16 04:14:25;;;;;;;5.53;1.85;;;;;;;19.28;47.17;101643.28;5020044;28;20050;-71
2022/07/16 04:16:52;;;;;;;8.18;2.30;;;;;;;19.59;47.06;101659.47;5016663;28;20060;-71
2022/07/16 04:19:19;;;;;;;10.68;3.10;;;;;;;19.38;47.77;101662.41;5029381;28;20068;-70
2022/07/16 04:21:47;;;;;;;9.50;2.25;;;;;;;19.47;47.86;101667.88;5025394;28;20511;-65
2022/07/16 04:24:14;;;;;;;9.13;2.55;;;;;;;19.24;48.77;101663.88;5021017;28;20053;-65
2022/07/16 04:26:41;;;;;;;9.05;2.65;;;;;;;19.34;48.74;101661.47;5027155;28;20500;-64
2022/07/16 04:29:08;;;;;;;8.70;2.63;;;;;;;19.40;48.65;101667.63;5032185;28;20076;-64
2022/07/16 04:31:36;;;;;;;7.93;2.58;;;;;;;19.16;49.12;101673.97;5036040;28;20507;-63
2022/07/16 04:34:03;;;;;;;19.23;3.65;;;;;;;19.31;48.78;101675.31;5032991;28;20049;-64
2022/07/16 04:36:31;;;;;;;10.70;2.83;;;;;;;19.06;49.53;101669.69;5023017;28;20076;-71
2022/07/16 04:38:58;;;;;;;7.53;2.78;;;;;;;19.05;49.68;101675.63;5050349;28;20049;-64
2022/07/16 04:41:25;;;;;;;13.07;3.05;;;;;;;18.50;51.48;101675.22;5030196;28;20641;-69
2022/07/16 04:43:53;;;;;;;7.82;2.85;;;;;;;18.73;51.09;101676.47;5022382;28;20053;-63
2022/07/16 04:46:20;;;;;;;12.90;2.60;;;;;;;18.75;50.78;101680.56;5035706;28;20049;-66
2022/07/16 04:48:48;;;;;;;10.85;2.72;;;;;;;18.32;51.96;101682.94;5015256;28;20651;-64
2022/07/16 04:51:15;;;;;;;10.15;2.58;;;;;;;18.30;52.51;101676.06;5026305;28;20042;-71
2022/07/16 04:53:42;;;;;;;8.63;2.70;;;;;;;18.53;52.27;101680.94;5050349;28;20061;-64
2022/07/16 04:56:10;;;;;;;7.60;2.88;;;;;;;18.88;50.97;101687.78;5029677;28;20041;-69
2022/07/16 04:58:37;;;;;;;11.52;2.88;;;;;;;18.73;51.21;101687.63;5018977;28;20068;-71
2022/07/16 05:01:04;;;;;;;9.10;2.67;;;;;;;18.91;50.97;101683.50;5027527;28;20064;-70
2022/07/16 05:03:32;;;;;;;9.98;2.47;;;;;;;18.54;51.95;101690.13;5032140;28;20061;-71
2022/07/16 05:05:59;;;;;;;8.35;2.58;;;;;;;18.49;52.42;101687.56;5035139;28;20056;-71
2022/07/16 05:08:27;;;;;;;11.85;2.72;;;;;;;18.40;51.98;101684.84;5026992;28;20053;-70
2022/07/16 05:10:54;;;;;;;7.22;2.50;;;;;;;18.44;52.72;101685.00;5032939;28;20053;-71
2022/07/16 05:13:21;;;;;;;8.20;2.28;;;;;;;18.45;52.77;101687.44;5033141;28;20049;-70
2022/07/16 05:15:49;;;;;;;6.32;2.47;;;;;;;18.56;52.23;101683.06;5018630;28;20072;-71
2022/07/16 05:18:16;;;;;;;8.82;2.88;;;;;;;18.70;51.92;101679.97;5026386;28;20044;-71
2022/07/16 05:20:44;;;;;;;14.30;2.78;;;;;;;18.51;52.44;101671.28;5034924;28;20084;-64
2022/07/16 05:23:11;;;;;;;10.40;2.53;;;;;;;18.64;52.27;101667.38;5023173;28;20046;-65
2022/07/16 05:25:39;;;;;;;6.50;2.55;;;;;;;18.53;52.71;101669.00;5031467;28;20053;-65
2022/07/16 05:28:06;;;;;;;10.20;3.10;;;;;;;18.60;52.44;101674.81;5035305;28;20056;-64
2022/07/16 05:30:33;;;;;;;10.00;2.60;;;;;;;18.54;52.74;101670.59;5015646;28;20532;-64
2022/07/16 05:33:01;;;;;;;9.00;2.63;;;;;;;18.77;52.21;101660.69;5027086;28;20045;-65
2022/07/16 05:35:28;;;;;;;9.48;3.08;;;;;;;18.87;51.80;101668.59;5036654;28;20061;-64
2022/07/16 05:37:56;;;;;;;12.32;3.00;;;;;;;18.91;51.60;101677.91;5045625;28;20048;-64
2022/07/16 05:40:23;;;;;;;8.05;3.17;;;;;;;18.85;51.79;101679.28;5031932;28;20057;-64
2022/07/16 05:42:50;;;;;;;13.13;3.10;;;;;;;19.05;51.29;101678.41;5028260;28;20052;-64
2022/07/16 05:45:18;;;;;;;9.38;2.72;;;;;;;19.11;50.68;101670.63;5034439;28;20057;-71
2022/07/16 05:47:45;;;;;;;9.98;2.80;;;;;;;19.09;50.32;101682.13;5032272;28;20054;-71
2022/07/16 05:50:14;;;;;;;9.68;2.95;;;;;;;19.31;50.15;101684.50;5015078;28;20072;-64
2022/07/16 05:52:41;;;;;;;11.07;2.58;;;;;;;19.44;49.07;101693.72;5024131;28;20050;-64
2022/07/16 05:55:08;;;;;;;8.05;2.75;;;;;;;19.37;49.40;101697.06;5017997;28;20061;-71
2022/07/16 05:57:36;;;;;;;9.68;2.80;;;;;;;19.45;49.10;101704.53;5034245;28;20049;-71
2022/07/16 06:00:08;;;;;;;8.98;2.47;;;;;;;19.42;49.40;101710.00;5031374;28;20057;-71
2022/07/16 06:02:40;;;;;;;7.88;2.55;;;;;;;19.51;48.90;101696.75;5034422;28;20053;-72
2022/07/16 06:05:09;;;;;;;12.73;2.85;;;;;;;19.50;49.19;101712.69;5021605;28;20172;-70
2022/07/16 06:07:36;;;;;;;10.32;2.65;;;;;;;19.63;48.62;101705.91;5033554;28;20049;-72
2022/07/16 06:10:04;;;;;;;10.32;2.63;;;;;;;19.84;47.95;101712.19;5021362;28;20064;-64
2022/07/16 06:12:32;;;;;;;9.75;2.78;;;;;;;19.62;48.65;101720.25;5031193;28;20064;-70
2022/07/16 06:14:59;;;;;;;5.68;2.60;;;;;;;19.54;48.49;101722.03;5014582;28;20057;-71
2022/07/16 06:17:26;;;;;;;10.57;3.03;;;;;;;19.54;48.61;101716.44;5016180;28;20144;-71
2022/07/16 06:19:54;;;;;;;11.15;2.50;;;;;;;19.82;48.04;101722.91;5034479;28;20045;-71
2022/07/16 06:22:21;;;;;;;9.90;2.60;;;;;;;19.75;48.04;101724.69;5031998;28;20048;-72
2022/07/16 06:24:48;;;;;;;12.70;2.67;;;;;;;19.69;48.50;101723.28;5028442;28;20049;-65
2022/07/16 06:27:16;;;;;;;10.20;2.67;;;;;;;19.82;47.81;101722.91;5031953;28;20045;-65
2022/07/16 06:29:43;;;;;;;8.50;2.55;;;;;;;19.65;48.02;101728.75;5022667;28;20053;-63
2022/07/16 06:32:10;;;;;;;6.22;2.13;;;;;;;19.72;48.17;101731.78;5021069;28;20049;-64
2022/07/16 06:34:38;;;;;;;9.00;2.20;;;;;;;19.79;47.73;101734.81;5034680;28;20060;-72
2022/07/16 06:37:05;;;;;;;9.73;2.45;;;;;;;19.52;48.57;101741.09;5032279;28;20049;-72
2022/07/16 06:39:32;;;;;;;6.97;2.22;;;;;;;19.81;47.95;101746.47;5022610;28;20053;-71
2022/07/16 06:42:00;;;;;;;8.85;2.30;;;;;;;19.75;47.75;101747.06;5028908;28;20061;-64
2022/07/16 06:44:40;;;;;;;6.75;2.92;;;;;;;20.01;46.97;101750.28;5041030;28;20076;-71
2022/07/16 06:47:08;;;;;;;8.77;2.40;;;;;;;19.83;47.59;101749.72;5021903;28;20061;-70
2022/07/16 06:49:35;;;;;;;7.80;2.50;;;;;;;19.73;47.60;101752.16;5054645;28;20061;-71
2022/07/16 06:52:02;;;;;;;9.82;2.25;;;;;;;19.97;47.60;101747.38;5025332;28;20045;-64
2022/07/16 06:54:30;;;;;;;14.15;2.38;;;;;;;20.30;46.98;101757.59;5036189;28;20053;-65
2022/07/16 06:56:57;;;;;;;8.35;2.28;;;;;;;20.43;46.21;101762.81;5038024;28;20404;-71
2022/07/16 06:59:25;;;;;;;9.75;2.40;;;;;;;20.35;46.79;101748.94;5026277;28;20546;-70
2022/07/16 07:01:52;;;;;;;10.70;2.53;;;;;;;20.06;46.94;101764.03;5038160;28;20049;-70
2022/07/16 07:04:19;;;;;;;11.50;2.70;;;;;;;20.33;46.44;101763.28;5027931;28;20060;-64
2022/07/16 07:06:47;;;;;;;14.65;2.88;;;;;;;20.56;46.00;101764.38;5025382;28;20404;-64
2022/07/16 07:09:14;;;;;;;9.43;2.42;;;;;;;20.57;45.84;101765.22;5021917;28;20064;-64
2022/07/16 07:11:42;;;;;;;7.50;2.40;;;;;;;20.44;46.00;101763.59;5032898;28;20049;-72
2022/07/16 07:14:10;;;;;;;6.13;2.40;;;;;;;20.43;45.96;101765.63;5032299;28;20049;-70
2022/07/16 07:16:37;;;;;;;9.65;2.75;;;;;;;20.37;46.35;101763.41;5026616;28;20061;-64
2022/07/16 07:19:04;;;;;;;10.10;2.80;;;;;;;20.60;45.62;101773.72;5036036;28;20159;-63
2022/07/16 07:21:32;;;;;;;9.80;2.53;;;;;;;20.71;44.92;101763.63;5025213;28;20088;-64
2022/07/16 07:23:59;;;;;;;13.45;2.60;;;;;;;20.92;44.59;101760.63;5033587;28;20049;-63
2022/07/16 07:26:26;;;;;;;9.70;2.75;;;;;;;20.99;44.42;101766.47;5036933;28;20056;-64
2022/07/16 07:28:54;;;;;;;8.23;2.13;;;;;;;21.33;43.51;101764.94;5035692;28;20054;-64
2022/07/16 07:31:21;;;;;;;8.88;2.28;;;;;;;21.40;43.00;101768.75;5016152;28;20050;-65
2022/07/16 07:33:48;;;;;;;12.73;2.50;;;;;;;21.35;43.25;101769.03;5037119;28;20492;-65
2022/07/16 07:36:16;;;;;;;11.93;2.10;;;;;;;21.58;42.38;101766.41;5029301;28;20046;-63
2022/07/16 07:38:44;;;;;;;8.48;2.30;;;;;;;21.74;41.87;101770.03;5017378;28;20057;-64
2022/07/16 07:41:11;;;;;;;7.18;2.28;;;;;;;21.89;41.89;101764.44;5017028;28;20061;-64
2022/07/16 07:43:38;;;;;;;7.97;2.13;;;;;;;22.03;41.67;101766.75;5030722;28;20531;-64
2022/07/16 07:46:06;;;;;;;11.60;2.85;;;;;;;22.38;41.14;101758.31;5035725;28;20057;-64
2022/07/16 07:48:33;;;;;;;11.80;2.58;;;;;;;22.58;40.46;101762.81;5024094;28;20057;-70
2022/07/16 07:51:02;;;;;;;10.15;2.50;;;;;;;22.80;40.13;101759.25;5034933;28;20409;-64
2022/07/16 07:53:29;;;;;;;10.98;2.05;;;;;;;22.73;39.95;101764.72;5035501;28;20057;-64
2022/07/16 07:55:57;;;;;;;9.65;2.13;;;;;;;22.78;39.50;101762.44;5036164;28;20056;-64
2022/07/16 07:58:24;;;;;;;5.85;1.92;;;;;;;22.73;39.40;101759.91;5034297;28;20045;-65
2022/07/16 08:00:54;;;;;;;8.05;2.20;;;;;;;22.48;39.77;101771.75;5048235;28;20048;-63
2022/07/16 08:03:41;;;;;;;6.25;1.92;;;;;;;22.89;39.28;101762.66;5036971;28;20052;-64
2022/07/16 08:06:09;;;;;;;6.82;2.00;;;;;;;22.99;38.45;101764.84;5031060;28;20060;-65
2022/07/16 08:08:36;;;;;;;6.25;2.10;;;;;;;23.02;38.82;101770.53;5041999;28;20049;-65
2022/07/16 08:11:03;;;;;;;10.80;1.98;;;;;;;23.22;38.12;101760.06;5036684;28;20054;-71
2022/07/16 08:13:31;;;;;;;6.38;1.88;;;;;;;23.10;38.85;101763.84;5032257;28;20053;-63
2022/07/16 08:15:58;;;;;;;10.23;2.45;;;;;;;23.27;38.22;101769.00;5044553;28;20064;-62
2022/07/16 08:18:25;;;;;;;6.65;2.15;;;;;;;23.83;37.61;101766.38;5035825;28;20441;-62
2022/07/16 08:20:53;;;;;;;6.30;1.98;;;;;;;23.02;38.39;101762.09;5044456;28;20054;-69
2022/07/16 08:25:44;;;;;;;9.15;2.00;;;;;;;23.33;37.94;101766.72;5037406;28;20052;-67
2022/07/16 08:26:07;;;;;;;5.50;1.88;;;;;;;22.59;38.77;101765.25;5034670;28;20049;-66
2022/07/16 08:28:40;;;;;;;6.15;1.85;;;;;;;22.71;38.68;101765.09;5043097;28;20063;-69
2022/07/16 08:31:07;;;;;;;6.28;1.95;;;;;;;22.98;39.04;101761.22;5065799;28;20049;-67
2022/07/16 08:33:35;;;;;;;10.68;2.00;;;;;;;23.39;38.52;101760.41;5045476;28;20774;-69
2022/07/16 08:36:03;;;;;;;5.97;1.90;;;;;;;23.38;38.20;101755.97;5032751;28;21838;-63
2022/07/16 08:38:31;;;;;;;7.00;1.70;;;;;;;23.40;38.44;101761.22;5057266;28;20061;-70
2022/07/16 08:41:19;;;;;;;10.73;2.30;;;;;;;23.34;38.73;101762.72;5038774;28;20056;-68
2022/07/16 08:43:46;;;;;;;9.07;1.88;;;;;;;23.59;38.03;101755.50;5041536;28;20053;-67
2022/07/16 08:46:14;;;;;;;8.88;2.17;;;;;;;23.54;38.27;101766.28;5041993;28;20056;-69
2022/07/16 08:48:42;;;;;;;8.70;2.20;;;;;;;23.83;37.37;101771.19;5042999;28;20045;-61
2022/07/16 08:51:10;;;;;;;17.95;2.20;;;;;;;24.14;37.13;101773.72;5039978;28;20149;-62
2022/07/16 08:53:39;;;;;;;6.35;2.08;;;;;;;23.71;37.64;101774.22;5037970;28;20042;-63
2022/07/16 08:56:07;;;;;;;10.00;2.30;;;;;;;23.43;37.78;101771.72;5042702;28;20047;-63
2022/07/16 08:58:35;;;;;;;5.32;2.03;;;;;;;23.38;37.82;101767.22;5034547;28;20049;-62
2022/07/16 09:01:03;;;;;;;8.10;1.77;;;;;;;23.52;37.86;101775.06;5032090;28;20045;-69
2022/07/16 09:03:30;;;;;;;4.57;1.73;;;;;;;22.85;38.84;101776.63;5032260;28;20052;-66
2022/07/16 09:05:57;;;;;;;7.95;2.08;;;;;;;22.94;38.91;101770.75;5030305;28;20061;-61
2022/07/16 09:08:25;;;;;;;9.25;2.60;;;;;;;23.31;38.15;101767.09;5037113;28;20049;-62
2022/07/16 09:10:52;;;;;;;7.75;1.70;;;;;;;23.50;37.87;101769.03;5019300;28;20382;-62
2022/07/16 09:13:19;;;;;;;8.38;1.73;;;;;;;23.58;38.04;101769.97;5025698;28;20057;-69
2022/07/16 09:15:47;;;;;;;7.88;2.13;;;;;;;23.86;37.85;101774.06;5031867;28;20436;-69
2022/07/16 09:18:24;;;;;;;9.02;2.17;;;;;;;24.06;37.53;101781.22;5029717;28;20064;-62
2022/07/16 09:20:54;;;;;;;10.30;2.10;;;;;;;24.17;36.15;101781.38;5034225;28;20057;-62
2022/07/16 09:23:25;;;;;;;19.25;2.55;;;;;;;23.88;36.77;101771.69;5037148;28;20401;-58
2022/07/16 09:26:03;;;;;;;7.43;2.00;;;;;;;24.10;35.76;101770.84;5029957;28;20161;-68
2022/07/16 09:28:47;;;;;;;7.88;1.83;;;;;;;23.85;35.77;101778.03;5008911;28;20057;-65
2022/07/16 09:31:36;;;;;;;6.85;1.70;;;;;;;23.53;36.51;101784.34;5020817;28;20053;-65
2022/07/16 09:34:12;;;;;;;9.45;2.10;;;;;;;23.65;36.32;101768.09;5025475;28;20045;-66
2022/07/16 09:36:55;;;;;;;8.93;1.90;;;;;;;23.79;35.75;101778.75;5029720;28;20389;-59
2022/07/16 09:39:23;;;;;;;5.10;1.95;;;;;;;23.84;36.05;101768.00;5021241;28;20053;-58
2022/07/16 09:41:51;;;;;;;6.55;1.88;;;;;;;24.22;35.53;101770.63;5022744;28;20054;-58
2022/07/16 09:44:24;;;;;;;9.02;1.88;;;;;;;23.98;34.64;101768.22;5028091;28;20056;-66
2022/07/16 09:47:05;;;;;;;3.95;1.45;;;;;;;23.64;35.38;101772.06;5035516;28;20053;-65
2022/07/16 09:49:36;;;;;;;4.80;1.85;;;;;;;23.92;34.44;101780.97;5011500;28;20058;-64
2022/07/16 09:52:08;;;;;;;8.65;1.80;;;;;;;24.14;34.73;101780.16;5026245;28;20063;-65
2022/07/16 09:54:37;;;;;;;7.25;1.90;;;;;;;23.88;34.46;101771.69;5030766;28;20037;-67
2022/07/16 09:57:11;;;;;;;5.80;1.57;;;;;;;23.54;34.08;101777.53;5031612;28;20113;-65
2022/07/16 09:59:40;;;;;;;4.55;1.30;;;;;;;23.36;34.30;101777.22;5031171;28;20077;-67
2022/07/16 10:02:28;;;;;;;6.35;1.73;;;;;;;23.77;34.13;101769.88;5006203;28;20418;-71
2022/07/16 10:04:56;;;;;;;5.88;1.48;;;;;;;23.93;34.03;101782.63;5024069;28;20045;-63
2022/07/16 10:07:31;;;;;;;8.73;2.10;;;;;;;24.14;34.85;101774.53;5024311;28;20408;-66
2022/07/16 10:09:59;;;;;;;8.68;1.70;;;;;;;24.34;34.07;101778.84;5024613;28;20054;-65
2022/07/16 10:12:27;;;;;;;4.45;1.65;;;;;;;24.38;33.62;101793.78;5024460;28;20431;-65
2022/07/16 10:14:54;;;;;;;5.40;1.50;;;;;;;24.35;32.83;101785.28;5024949;28;20496;-65
2022/07/16 10:17:30;;;;;;;6.70;1.60;;;;;;;24.31;32.74;101773.97;5013894;28;20042;-65
2022/07/16 10:20:00;;;;;;;4.88;1.75;;;;;;;24.55;32.14;101778.31;5043049;28;20045;-72
2022/07/16 10:22:30;;;;;;;5.53;1.70;;;;;;;24.63;33.49;101777.22;5017270;28;20061;-70
2022/07/16 10:24:58;;;;;;;12.27;2.38;;;;;;;24.18;33.35;101785.84;5039561;28;20061;-70
2022/07/16 10:27:34;;;;;;;5.88;2.00;;;;;;;24.32;33.34;101783.25;5039021;28;20092;-73
2022/07/16 10:30:15;;;;;;;7.45;1.90;;;;;;;24.25;33.71;101775.47;5023175;28;20065;-70
2022/07/16 10:32:59;;;;;;;8.73;1.83;;;;;;;24.56;33.45;101779.94;5026140;28;20535;-70
2022/07/16 10:35:31;;;;;;;5.55;1.75;;;;;;;24.55;33.15;101780.31;5027153;28;20409;-63
2022/07/16 10:38:08;;;;;;;9.77;1.80;;;;;;;24.71;32.83;101767.69;5029174;28;20068;-70
2022/07/16 10:41:07;;;;;;;6.68;1.83;;;;;;;24.71;32.32;101756.41;5030948;28;20045;-62
2022/07/16 10:43:36;;;;;;;6.43;1.55;;;;;;;24.38;32.84;101761.97;5037223;28;20046;-64
2022/07/16 10:46:06;;;;;;;5.97;1.90;;;;;;;24.25;33.21;101769.84;5035234;28;20048;-63
2022/07/16 10:48:37;;;;;;;9.02;1.83;;;;;;;24.21;33.24;101768.19;5056882;28;20080;-63
2022/07/16 10:51:14;;;;;;;8.30;2.10;;;;;;;24.41;32.78;101772.47;5023128;28;20057;-63
2022/07/16 10:54:03;;;;;;;8.50;2.83;;;;;;;24.35;33.34;101776.84;5018094;28;20499;-64
2022/07/16 10:56:43;;;;;;;7.18;1.70;;;;;;;24.25;33.43;101777.50;5036850;28;20510;-64
2022/07/16 10:59:13;;;;;;;7.05;2.15;;;;;;;24.16;33.74;101772.16;5031729;28;20049;-63
2022/07/16 11:01:43;;;;;;;8.35;2.10;;;;;;;24.27;33.28;101761.84;5038912;28;20053;-66
2022/07/16 11:04:11;;;;;;;4.75;1.80;;;;;;;24.41;33.49;101767.66;5027758;28;20042;-69
2022/07/16 11:06:40;;;;;;;3.78;1.50;;;;;;;24.67;33.16;101766.00;5032864;28;20076;-69
2022/07/16 11:09:08;;;;;;;6.60;2.03;;;;;;;24.77;33.03;101763.34;5028012;28;20049;-70
2022/07/16 11:11:39;;;;;;;7.90;2.30;;;;;;;24.86;33.29;101768.66;5024557;28;20053;-69
2022/07/16 11:14:09;;;;;;;6.35;1.83;;;;;;;24.82;33.16;101773.44;5055953;28;20496;-69
2022/07/16 11:16:50;;;;;;;5.40;1.50;;;;;;;24.86;33.45;101766.63;5026648;28;20046;-68
2022/07/16 11:19:17;;;;;;;5.50;1.90;;;;;;;25.31;32.66;101757.06;5030291;28;20056;-68
2022/07/16 11:21:55;;;;;;;5.55;1.90;;;;;;;25.70;32.79;101754.63;5038888;28;20058;-68
2022/07/16 11:24:24;;;;;;;11.32;2.10;;;;;;;25.59;31.92;101754.53;5049113;28;20056;-68
2022/07/16 11:26:52;;;;;;;10.02;2.03;;;;;;;25.46;32.25;101747.56;5019770;28;20057;-69
2022/07/16 11:29:20;;;;;;;7.20;1.88;;;;;;;25.35;31.31;101755.09;5027238;28;20041;-68
2022/07/16 11:31:48;;;;;;;5.72;2.03;;;;;;;25.19;32.19;101740.44;5021461;28;20050;-69
2022/07/16 11:34:22;;;;;;;4.35;1.77;;;;;;;25.34;32.02;101756.28;5024127;28;20065;-68